Time;durP1;ratioP1;P1;durP2;ratioP2;P2;SDS_P1;SDS_P2;PMS_P1;PMS_P2;Temp;Humidity;BMP_temperature;BMP_pressure;BME280_temperature;BME280_humidity;BME280_pressure;Samples;Min_cycle;Max_cycle;Signal;HPM_P1;HPM_P2
2023/07/01 00:00:27;;;;;;;3.97;2.47;;;17.70;99.90;;;;;;5033525;28;20172;-62
2023/07/01 00:02:53;;;;;;;4.85;2.65;;;17.90;99.90;;;;;;5033326;28;20187;-62
2023/07/01 00:05:19;;;;;;;6.30;3.05;;;17.80;99.90;;;;;;5033329;28;20180;-62
2023/07/01 00:07:45;;;;;;;6.15;3.00;;;17.70;99.90;;;;;;5033144;28;20212;-62
2023/07/01 00:10:11;;;;;;;3.90;2.58;;;17.60;99.90;;;;;;5033401;28;20263;-62
2023/07/01 00:12:37;;;;;;;5.20;3.00;;;17.70;99.90;;;;;;5033483;28;20763;-62
2023/07/01 00:15:03;;;;;;;3.92;2.60;;;17.70;99.90;;;;;;5033345;28;20637;-62
2023/07/01 00:17:29;;;;;;;5.85;2.85;;;17.60;99.90;;;;;;5023641;28;20727;-61
2023/07/01 00:19:55;;;;;;;5.13;2.80;;;17.70;99.90;;;;;;5053877;28;20171;-62
2023/07/01 00:22:20;;;;;;;6.10;2.83;;;17.70;99.90;;;;;;5057286;28;20253;-62
2023/07/01 00:24:46;;;;;;;4.78;3.00;;;17.70;99.90;;;;;;5057157;28;20579;-62
2023/07/01 00:27:12;;;;;;;4.05;2.80;;;17.70;99.90;;;;;;5057285;28;20199;-62
2023/07/01 00:29:37;;;;;;;5.35;2.92;;;17.70;99.90;;;;;;5057268;28;20175;-62
2023/07/01 00:32:04;;;;;;;4.60;2.72;;;17.70;99.90;;;;;;5056935;28;20171;-62
2023/07/01 00:34:29;;;;;;;3.83;2.70;;;17.70;99.90;;;;;;5057093;28;20337;-61
2023/07/01 00:36:55;;;;;;;4.38;2.75;;;17.70;99.90;;;;;;5056921;28;20265;-62
2023/07/01 00:39:21;;;;;;;6.25;3.10;;;17.70;99.90;;;;;;5057240;28;20171;-62
2023/07/01 00:41:56;;;;;;;6.07;2.60;;;17.70;99.90;;;;;;5057110;28;20171;-61
2023/07/01 00:44:22;;;;;;;4.85;2.65;;;17.70;99.90;;;;;;5057004;28;20171;-62
2023/07/01 00:46:48;;;;;;;4.00;2.75;;;17.60;99.90;;;;;;5056913;28;20625;-62
2023/07/01 00:49:14;;;;;;;6.50;2.95;;;17.60;99.90;;;;;;5056689;28;20246;-62
2023/07/01 00:51:39;;;;;;;4.18;2.83;;;17.50;99.90;;;;;;5056637;28;20179;-62
2023/07/01 00:54:06;;;;;;;5.07;2.67;;;17.50;99.90;;;;;;5056812;28;20175;-62
2023/07/01 00:56:31;;;;;;;3.75;2.47;;;17.60;99.90;;;;;;5056764;28;20296;-62
2023/07/01 00:58:58;;;;;;;5.22;2.80;;;17.70;99.90;;;;;;5056782;28;20225;-62
2023/07/01 01:01:34;;;;;;;4.15;2.70;;;17.60;99.90;;;;;;5056611;28;20183;-61
2023/07/01 01:04:04;;;;;;;5.47;2.95;;;17.60;99.90;;;;;;5056467;28;20167;-62
2023/07/01 01:06:46;;;;;;;4.88;2.33;;;17.60;99.90;;;;;;5056603;28;20170;-62
2023/07/01 01:09:17;;;;;;;5.95;2.80;;;17.70;99.90;;;;;;5056492;28;20203;-62
2023/07/01 01:11:46;;;;;;;4.43;2.63;;;17.70;99.90;;;;;;5056478;28;20253;-61
2023/07/01 01:14:13;;;;;;;4.38;3.08;;;17.70;99.90;;;;;;5056354;28;20644;-62
2023/07/01 01:16:42;;;;;;;7.15;3.10;;;17.60;99.90;;;;;;5056110;28;20187;-62
2023/07/01 01:19:24;;;;;;;4.93;3.17;;;17.40;99.90;;;;;;5037138;28;20234;-61
2023/07/01 01:22:21;;;;;;;3.28;2.50;;;17.40;99.90;;;;;;5036311;28;20587;-62
2023/07/01 01:24:51;;;;;;;5.53;2.80;;;17.50;99.90;;;;;;5021746;28;20174;-62
2023/07/01 01:27:23;;;;;;;6.03;3.13;;;17.40;99.90;;;;;;5035956;28;20532;-62
2023/07/01 01:29:49;;;;;;;5.03;3.03;;;17.50;99.90;;;;;;5036180;28;20164;-61
2023/07/01 01:32:15;;;;;;;5.40;2.90;;;17.40;99.90;;;;;;5035392;28;20202;-62
2023/07/01 01:34:40;;;;;;;4.10;2.63;;;17.50;99.90;;;;;;5035995;28;20641;-62
2023/07/01 01:37:14;;;;;;;4.03;2.78;;;17.50;99.90;;;;;;5035857;28;20188;-62
2023/07/01 01:39:45;;;;;;;2.90;2.45;;;17.50;99.90;;;;;;5035837;28;20171;-62
2023/07/01 01:42:17;;;;;;;3.05;2.42;;;17.60;99.90;;;;;;5036021;28;20252;-62
2023/07/01 01:44:47;;;;;;;6.15;2.80;;;17.50;99.90;;;;;;5035854;28;20167;-61
2023/07/01 01:47:19;;;;;;;4.55;2.65;;;17.40;99.90;;;;;;5035658;28;20656;-61
2023/07/01 01:49:49;;;;;;;5.35;3.10;;;17.40;99.90;;;;;;5035709;28;20168;-61
2023/07/01 01:52:16;;;;;;;7.78;3.22;;;17.40;99.90;;;;;;5035809;28;20180;-62
2023/07/01 01:54:45;;;;;;;4.10;2.45;;;17.20;99.90;;;;;;5035731;28;20172;-61
2023/07/01 01:57:11;;;;;;;5.15;2.80;;;17.10;99.90;;;;;;5035453;28;20572;-61
2023/07/01 01:59:37;;;;;;;6.10;2.90;;;17.10;99.90;;;;;;5035612;28;20283;-61
2023/07/01 02:02:03;;;;;;;3.88;2.80;;;17.10;99.90;;;;;;5035523;28;20180;-61
2023/07/01 02:04:28;;;;;;;4.25;2.83;;;17.10;99.90;;;;;;5035308;28;20183;-61
2023/07/01 02:06:54;;;;;;;3.65;2.65;;;17.00;99.90;;;;;;5035322;28;20180;-61
2023/07/01 02:09:19;;;;;;;5.05;3.42;;;17.00;99.90;;;;;;5035469;28;20215;-61
2023/07/01 02:11:45;;;;;;;4.93;2.88;;;17.10;99.90;;;;;;5035430;28;20260;-61
2023/07/01 02:14:11;;;;;;;3.22;2.92;;;17.10;99.90;;;;;;5035352;28;20199;-61
2023/07/01 02:16:37;;;;;;;5.53;3.40;;;17.00;99.90;;;;;;5035274;28;20230;-60
2023/07/01 02:19:06;;;;;;;5.85;3.20;;;17.00;99.90;;;;;;5035083;28;20228;-61
2023/07/01 02:21:32;;;;;;;3.20;2.92;;;16.80;99.90;;;;;;5035133;28;20172;-61
2023/07/01 02:23:58;;;;;;;4.93;3.08;;;16.80;99.90;;;;;;5035253;28;20182;-61
2023/07/01 02:26:24;;;;;;;4.68;3.28;;;16.90;99.90;;;;;;5035168;28;20176;-61
2023/07/01 02:28:50;;;;;;;4.38;3.10;;;16.80;99.90;;;;;;5034863;28;20257;-61
2023/07/01 02:31:18;;;;;;;4.28;2.88;;;16.80;99.90;;;;;;5034938;28;20184;-61
2023/07/01 02:33:47;;;;;;;3.55;2.75;;;16.80;99.90;;;;;;5034829;28;20231;-61
2023/07/01 02:36:12;;;;;;;4.65;2.75;;;16.70;99.90;;;;;;5035048;28;20572;-61
2023/07/01 02:38:38;;;;;;;4.32;2.80;;;16.60;99.90;;;;;;5034917;28;20171;-61
2023/07/01 02:41:04;;;;;;;3.53;2.80;;;16.70;99.90;;;;;;5034865;28;20184;-61
2023/07/01 02:43:29;;;;;;;3.45;3.08;;;16.50;99.90;;;;;;5033727;28;20195;-61
2023/07/01 02:45:55;;;;;;;2.90;2.70;;;16.60;99.90;;;;;;5034701;28;20176;-60
2023/07/01 02:48:20;;;;;;;3.33;2.70;;;16.60;99.90;;;;;;5034325;28;20250;-60
2023/07/01 02:50:46;;;;;;;4.43;2.60;;;16.50;99.90;;;;;;5034548;28;20180;-60
2023/07/01 02:53:12;;;;;;;4.68;2.55;;;16.60;99.90;;;;;;5034681;28;20231;-61
2023/07/01 02:55:38;;;;;;;4.30;2.47;;;16.70;99.90;;;;;;5034587;28;20313;-61
2023/07/01 02:58:04;;;;;;;3.20;2.90;;;16.70;99.90;;;;;;5034472;28;20180;-60
2023/07/01 03:00:30;;;;;;;3.67;3.00;;;16.70;99.90;;;;;;5034411;28;20608;-60
2023/07/01 03:03:05;;;;;;;4.25;2.90;;;16.80;99.90;;;;;;5034222;28;20267;-61
2023/07/01 03:05:39;;;;;;;3.17;2.60;;;16.70;99.90;;;;;;5034502;28;20238;-60
2023/07/01 03:08:05;;;;;;;3.70;2.85;;;16.80;99.90;;;;;;5034265;28;20302;-60
2023/07/01 03:10:31;;;;;;;4.35;2.72;;;16.70;99.90;;;;;;5034205;28;20168;-60
2023/07/01 03:12:58;;;;;;;3.90;2.92;;;16.70;99.90;;;;;;5034182;28;20172;-61
2023/07/01 03:15:24;;;;;;;3.08;2.63;;;16.70;99.90;;;;;;5034024;28;20541;-60
2023/07/01 03:17:50;;;;;;;3.50;2.95;;;16.80;99.90;;;;;;5033944;28;20239;-60
2023/07/01 03:20:25;;;;;;;3.72;3.17;;;16.70;99.90;;;;;;5034076;28;20176;-62
2023/07/01 03:22:56;;;;;;;3.38;2.70;;;16.70;99.90;;;;;;5034117;28;20254;-61
2023/07/01 03:25:22;;;;;;;4.30;3.08;;;16.70;99.90;;;;;;5034012;28;20172;-61
2023/07/01 03:27:49;;;;;;;3.50;3.05;;;16.70;99.90;;;;;;5033763;28;20232;-60
2023/07/01 03:30:16;;;;;;;3.70;2.83;;;16.60;99.90;;;;;;5033733;28;20180;-60
2023/07/01 03:32:46;;;;;;;3.45;2.50;;;16.80;99.90;;;;;;5016006;28;20186;-60
2023/07/01 03:35:14;;;;;;;4.20;2.90;;;16.70;99.90;;;;;;5033931;28;20200;-60
2023/07/01 03:37:41;;;;;;;5.45;2.50;;;16.70;99.90;;;;;;5033784;28;20184;-60
2023/07/01 03:40:11;;;;;;;4.55;3.20;;;16.60;99.90;;;;;;5033602;28;20172;-60
2023/07/01 03:42:43;;;;;;;4.55;2.90;;;16.70;99.90;;;;;;5033524;28;20175;-60
2023/07/01 03:45:10;;;;;;;4.82;3.00;;;16.70;99.90;;;;;;5033702;28;20183;-60
2023/07/01 03:47:41;;;;;;;2.88;2.60;;;16.70;99.90;;;;;;5033638;28;20291;-60
2023/07/01 03:50:10;;;;;;;4.47;2.80;;;16.80;99.90;;;;;;5041472;28;20680;-60
2023/07/01 03:52:37;;;;;;;3.88;2.80;;;16.90;99.90;;;;;;5053303;28;20537;-60
2023/07/01 03:55:04;;;;;;;2.75;2.55;;;16.90;99.90;;;;;;5053061;28;20174;-61
2023/07/01 03:57:30;;;;;;;3.75;2.90;;;16.80;99.90;;;;;;5053735;28;20186;-60
2023/07/01 03:59:55;;;;;;;3.35;2.67;;;16.90;99.90;;;;;;5053507;28;20187;-60
2023/07/01 04:02:21;;;;;;;4.35;2.58;;;16.80;99.90;;;;;;5053223;28;20183;-60
2023/07/01 04:04:47;;;;;;;4.65;2.42;;;16.60;99.90;;;;;;5053365;28;20249;-61
2023/07/01 04:07:13;;;;;;;8.43;3.13;;;16.60;99.90;;;;;;5053124;28;20183;-60
2023/07/01 04:09:38;;;;;;;6.22;2.90;;;16.60;99.90;;;;;;5053186;28;20233;-61
2023/07/01 04:12:05;;;;;;;3.47;2.63;;;16.70;99.90;;;;;;5052999;28;20695;-59
2023/07/01 04:14:31;;;;;;;3.45;2.83;;;16.70;99.90;;;;;;5053307;28;20175;-59
2023/07/01 04:16:56;;;;;;;3.65;3.05;;;16.80;99.90;;;;;;5053063;28;20175;-58
2023/07/01 04:19:22;;;;;;;4.00;2.80;;;16.80;99.90;;;;;;5053171;28;20595;-59
2023/07/01 04:21:48;;;;;;;2.90;2.47;;;16.70;99.90;;;;;;5053091;28;20225;-59
2023/07/01 04:24:14;;;;;;;3.17;2.67;;;16.80;99.90;;;;;;5053021;28;20179;-59
2023/07/01 04:26:41;;;;;;;2.58;2.33;;;16.70;99.90;;;;;;5052964;28;20171;-59
2023/07/01 04:29:09;;;;;;;4.10;2.65;;;16.60;99.90;;;;;;5053128;28;20222;-58
2023/07/01 04:31:35;;;;;;;3.25;2.60;;;16.50;99.90;;;;;;5053041;28;20194;-59
2023/07/01 04:34:00;;;;;;;2.80;2.60;;;16.50;99.90;;;;;;5035192;28;20183;-59
2023/07/01 04:36:26;;;;;;;3.17;2.40;;;16.70;99.90;;;;;;5052789;28;20644;-59
2023/07/01 04:38:52;;;;;;;3.08;2.53;;;16.70;99.90;;;;;;5052782;28;20199;-59
2023/07/01 04:41:18;;;;;;;2.38;2.15;;;16.80;99.90;;;;;;5053032;28;20195;-59
2023/07/01 04:43:44;;;;;;;2.67;2.40;;;16.80;99.90;;;;;;5052821;28;20183;-59
2023/07/01 04:46:09;;;;;;;2.35;2.15;;;16.60;99.90;;;;;;5052949;28;20183;-59
2023/07/01 04:48:35;;;;;;;2.33;1.90;;;16.70;99.90;;;;;;5052693;28;20294;-59
2023/07/01 04:51:00;;;;;;;4.15;2.30;;;16.70;99.90;;;;;;5052815;28;20179;-59
2023/07/01 04:53:26;;;;;;;2.15;1.95;;;16.80;99.90;;;;;;5052687;28;20234;-59
2023/07/01 04:55:52;;;;;;;2.20;2.00;;;16.80;99.90;;;;;;5052770;28;20694;-59
2023/07/01 04:58:17;;;;;;;1.90;1.70;;;16.80;99.90;;;;;;5052817;28;20256;-59
2023/07/01 05:00:44;;;;;;;1.75;1.65;;;16.70;99.90;;;;;;5052818;28;20171;-59
2023/07/01 05:03:10;;;;;;;1.67;1.58;;;16.70;99.90;;;;;;5052623;28;20624;-59
2023/07/01 05:05:36;;;;;;;1.85;1.75;;;16.80;99.90;;;;;;5034841;28;20267;-59
2023/07/01 05:08:01;;;;;;;1.98;1.63;;;16.70;99.90;;;;;;5054917;28;20211;-59
2023/07/01 05:10:27;;;;;;;2.13;1.70;;;16.80;99.90;;;;;;5056597;28;20202;-59
2023/07/01 05:12:53;;;;;;;1.85;1.73;;;16.80;99.90;;;;;;5056341;28;20168;-59
2023/07/01 05:15:18;;;;;;;2.03;1.90;;;16.80;99.90;;;;;;5056459;28;20179;-59
2023/07/01 05:17:44;;;;;;;2.22;2.00;;;16.80;99.90;;;;;;5056339;28;20284;-58
2023/07/01 05:20:11;;;;;;;1.60;1.50;;;16.80;99.90;;;;;;5056333;28;20217;-59
2023/07/01 05:22:37;;;;;;;2.00;1.90;;;16.70;99.90;;;;;;5056075;28;20640;-59
2023/07/01 05:25:04;;;;;;;2.15;2.05;;;16.80;99.90;;;;;;5055857;28;20218;-59
2023/07/01 05:27:30;;;;;;;3.25;2.20;;;16.90;99.90;;;;;;5056142;28;20239;-59
2023/07/01 05:29:57;;;;;;;2.42;2.25;;;16.90;99.90;;;;;;5056161;28;20182;-59
2023/07/01 05:32:23;;;;;;;2.47;2.28;;;17.00;99.90;;;;;;5055889;28;20164;-59
2023/07/01 05:34:49;;;;;;;2.92;2.63;;;17.00;99.90;;;;;;5055982;28;20182;-59
2023/07/01 05:37:14;;;;;;;2.80;2.60;;;17.00;99.90;;;;;;5055848;28;20167;-59
2023/07/01 05:39:40;;;;;;;2.45;2.25;;;17.10;99.90;;;;;;5056232;28;20237;-59
2023/07/01 05:42:06;;;;;;;2.40;2.20;;;17.20;99.90;;;;;;5037668;28;20179;-59
2023/07/01 05:44:32;;;;;;;2.67;2.15;;;17.10;99.90;;;;;;5055687;28;20168;-59
2023/07/01 05:46:58;;;;;;;5.80;2.50;;;17.10;99.90;;;;;;5055725;28;20179;-59
2023/07/01 05:49:24;;;;;;;2.45;2.25;;;17.10;99.90;;;;;;5055605;28;20215;-59
2023/07/01 05:51:49;;;;;;;2.75;2.55;;;17.10;99.90;;;;;;5055512;28;20175;-59
2023/07/01 05:54:15;;;;;;;2.60;2.40;;;17.00;99.90;;;;;;5055875;28;20609;-59
2023/07/01 05:56:41;;;;;;;2.60;2.40;;;17.00;99.90;;;;;;5032419;28;20221;-59
2023/07/01 05:59:06;;;;;;;2.90;2.25;;;17.10;99.90;;;;;;5054634;28;20637;-59
2023/07/01 06:01:32;;;;;;;2.78;2.58;;;17.00;99.90;;;;;;5036782;28;20182;-59
2023/07/01 06:03:58;;;;;;;2.97;2.42;;;16.90;99.90;;;;;;5055311;28;20167;-59
2023/07/01 06:06:23;;;;;;;2.75;2.50;;;17.00;99.90;;;;;;5055127;28;20179;-59
2023/07/01 06:08:49;;;;;;;3.00;2.78;;;17.10;99.90;;;;;;5055405;28;20309;-59
2023/07/01 06:11:15;;;;;;;3.05;2.80;;;17.10;99.90;;;;;;5055377;28;20174;-59
2023/07/01 06:13:47;;;;;;;2.92;2.40;;;17.10;99.90;;;;;;5055304;28;20175;-59
2023/07/01 06:16:14;;;;;;;3.17;2.60;;;17.20;99.90;;;;;;5055030;28;20182;-59
2023/07/01 06:18:40;;;;;;;2.30;2.05;;;17.10;99.90;;;;;;5054729;28;20294;-59
2023/07/01 06:21:09;;;;;;;3.03;2.30;;;17.10;99.90;;;;;;5054964;28;20174;-59
2023/07/01 06:23:36;;;;;;;2.30;2.20;;;17.00;99.90;;;;;;5055339;28;20171;-59
2023/07/01 06:26:03;;;;;;;2.38;2.17;;;17.00;99.90;;;;;;5053355;28;20215;-59
2023/07/01 06:28:29;;;;;;;1.92;1.83;;;17.20;99.90;;;;;;5042897;28;20211;-59
2023/07/01 06:30:54;;;;;;;2.83;1.77;;;17.20;99.90;;;;;;5054637;28;20240;-59
2023/07/01 06:33:20;;;;;;;2.35;1.65;;;17.30;99.90;;;;;;5054413;28;20203;-59
2023/07/01 06:35:46;;;;;;;1.58;1.45;;;17.30;99.90;;;;;;5036686;28;20175;-59
2023/07/01 06:38:12;;;;;;;2.25;1.60;;;17.30;99.90;;;;;;5054364;28;20182;-59
2023/07/01 06:40:37;;;;;;;1.40;1.30;;;17.30;99.90;;;;;;5054525;28;20175;-59
2023/07/01 06:43:03;;;;;;;1.50;1.40;;;17.40;99.90;;;;;;5054510;28;20194;-59
2023/07/01 06:45:30;;;;;;;1.63;1.40;;;17.50;99.90;;;;;;5054185;28;20193;-59
2023/07/01 06:47:56;;;;;;;1.98;1.50;;;17.60;99.90;;;;;;5054259;28;20222;-59
2023/07/01 06:50:22;;;;;;;1.40;1.30;;;17.50;99.90;;;;;;5054262;28;20628;-59
2023/07/01 06:52:47;;;;;;;1.20;1.10;;;17.50;99.90;;;;;;5054572;28;20178;-59
2023/07/01 06:55:16;;;;;;;1.15;1.05;;;17.50;99.90;;;;;;5054267;28;20207;-59
2023/07/01 06:57:42;;;;;;;1.50;1.40;;;17.40;99.90;;;;;;5054158;28;20171;-59
2023/07/01 07:00:10;;;;;;;3.28;1.33;;;17.50;99.90;;;;;;5054223;28;20179;-59
2023/07/01 07:02:36;;;;;;;2.63;1.48;;;17.50;99.90;;;;;;5053753;28;20165;-59
2023/07/01 07:05:06;;;;;;;1.50;1.35;;;17.50;99.90;;;;;;5053841;28;20171;-59
2023/07/01 07:07:32;;;;;;;1.60;1.50;;;17.50;99.90;;;;;;5044534;28;20176;-59
2023/07/01 07:09:58;;;;;;;1.60;1.50;;;17.60;99.90;;;;;;5016369;28;20515;-59
2023/07/01 07:12:24;;;;;;;1.60;1.50;;;17.70;99.90;;;;;;5034014;28;20171;-58
2023/07/01 07:14:49;;;;;;;1.55;1.45;;;17.70;99.90;;;;;;5033938;28;20183;-58
2023/07/01 07:17:15;;;;;;;2.20;1.80;;;17.60;99.90;;;;;;5033693;28;20584;-58
2023/07/01 07:19:41;;;;;;;2.40;1.90;;;17.50;99.90;;;;;;5033537;28;20202;-58
2023/07/01 07:22:06;;;;;;;2.08;1.92;;;17.60;99.90;;;;;;5033515;28;20176;-58
2023/07/01 07:24:32;;;;;;;3.67;2.75;;;17.70;99.90;;;;;;5034362;28;20222;-58
2023/07/01 07:27:02;;;;;;;3.40;2.40;;;17.80;99.90;;;;;;5053512;28;20656;-58
2023/07/01 07:29:29;;;;;;;3.75;2.58;;;17.80;99.90;;;;;;5052999;28;20242;-58
2023/07/01 07:31:56;;;;;;;2.67;2.40;;;17.80;99.90;;;;;;5053083;28;20215;-58
2023/07/01 07:34:22;;;;;;;2.75;2.47;;;17.80;99.90;;;;;;5053261;28;20176;-58
2023/07/01 07:36:47;;;;;;;3.08;2.83;;;17.70;99.90;;;;;;5053835;28;20258;-58
2023/07/01 07:39:14;;;;;;;2.75;2.55;;;17.70;99.90;;;;;;5053825;28;20658;-58
2023/07/01 07:41:44;;;;;;;2.90;2.58;;;17.80;99.90;;;;;;5053675;28;20171;-58
2023/07/01 07:44:10;;;;;;;2.75;2.42;;;17.70;99.90;;;;;;5053561;28;20194;-58
2023/07/01 07:46:38;;;;;;;3.15;2.90;;;17.80;99.90;;;;;;5053183;28;20632;-58
2023/07/01 07:49:04;;;;;;;3.05;2.50;;;17.80;99.90;;;;;;5053600;28;20249;-58
2023/07/01 07:51:30;;;;;;;3.40;2.72;;;17.90;99.90;;;;;;5053542;28;20167;-58
2023/07/01 07:53:56;;;;;;;5.45;2.92;;;17.80;99.90;;;;;;5053818;28;20182;-58
2023/07/01 07:56:22;;;;;;;3.05;2.85;;;17.90;99.90;;;;;;5053469;28;20257;-58
2023/07/01 07:58:48;;;;;;;3.45;2.90;;;17.90;99.90;;;;;;5053349;28;20214;-58
2023/07/01 08:01:14;;;;;;;3.65;3.33;;;17.90;99.90;;;;;;5052952;28;20178;-58
2023/07/01 08:03:40;;;;;;;3.72;3.42;;;17.90;99.90;;;;;;5053741;28;20178;-58
2023/07/01 08:06:06;;;;;;;3.55;3.20;;;18.00;99.90;;;;;;5053322;28;20179;-58
2023/07/01 08:08:32;;;;;;;3.30;3.00;;;18.00;99.90;;;;;;5053198;28;20213;-59
2023/07/01 08:11:01;;;;;;;3.30;3.00;;;18.10;99.90;;;;;;5053446;28;20168;-58
2023/07/01 08:13:27;;;;;;;3.30;3.00;;;18.10;99.90;;;;;;5053122;28;20528;-58
2023/07/01 08:15:53;;;;;;;2.80;2.60;;;18.10;99.90;;;;;;5052799;28;20172;-58
2023/07/01 08:18:19;;;;;;;4.50;3.25;;;18.10;99.90;;;;;;5053162;28;20234;-58
2023/07/01 08:20:45;;;;;;;4.10;3.10;;;18.10;99.90;;;;;;5053210;28;20174;-58
2023/07/01 08:23:13;;;;;;;3.78;2.97;;;18.10;99.90;;;;;;5053255;28;20179;-58
2023/07/01 08:25:40;;;;;;;3.00;2.80;;;18.20;99.90;;;;;;5053273;28;20175;-58
2023/07/01 08:28:06;;;;;;;2.95;2.75;;;18.20;99.90;;;;;;5052923;28;20211;-58
2023/07/01 08:30:31;;;;;;;3.22;2.92;;;18.10;99.90;;;;;;5052986;28;20652;-58
2023/07/01 08:32:57;;;;;;;3.42;3.13;;;18.10;99.90;;;;;;5053285;28;20651;-58
2023/07/01 08:35:23;;;;;;;7.05;3.25;;;18.20;99.90;;;;;;5053140;28;20175;-58
2023/07/01 08:37:48;;;;;;;3.42;2.80;;;18.10;99.90;;;;;;5052906;28;20183;-58
2023/07/01 08:40:14;;;;;;;2.90;2.70;;;18.30;99.90;;;;;;5052920;28;20179;-58
2023/07/01 08:42:48;;;;;;;2.72;2.47;;;18.40;99.90;;;;;;5037068;28;20648;-58
2023/07/01 08:45:14;;;;;;;2.45;2.33;;;18.40;99.90;;;;;;5056863;28;20524;-58
2023/07/01 08:47:40;;;;;;;3.83;2.50;;;18.40;99.90;;;;;;5056968;28;20214;-59
2023/07/01 08:50:10;;;;;;;2.55;2.20;;;18.40;99.90;;;;;;5056819;28;20176;-58
2023/07/01 08:52:46;;;;;;;2.25;2.10;;;18.40;99.90;;;;;;5056837;28;20199;-58
2023/07/01 08:55:13;;;;;;;2.38;2.20;;;18.40;99.90;;;;;;5056716;28;20171;-58
2023/07/01 08:57:39;;;;;;;1.95;1.85;;;18.40;99.90;;;;;;5056562;28;20175;-58
2023/07/01 09:00:07;;;;;;;2.38;2.00;;;18.50;99.90;;;;;;5056443;28;20273;-58
2023/07/01 09:02:33;;;;;;;4.55;2.10;;;18.50;99.90;;;;;;5056919;28;20168;-58
2023/07/01 09:04:59;;;;;;;1.92;1.83;;;18.60;99.90;;;;;;5056706;28;20221;-58
2023/07/01 09:07:25;;;;;;;1.70;1.60;;;18.50;99.90;;;;;;5045104;28;20537;-58
2023/07/01 09:09:50;;;;;;;1.80;1.70;;;18.70;99.90;;;;;;5034417;28;20203;-58
2023/07/01 09:12:16;;;;;;;1.83;1.73;;;18.70;99.90;;;;;;5034336;28;20219;-58
2023/07/01 09:15:00;;;;;;;1.70;1.60;;;18.60;99.90;;;;;;5036481;28;20837;-58
2023/07/01 09:17:39;;;;;;;2.05;1.85;;;18.60;99.90;;;;;;5044888;28;20223;-58
2023/07/01 09:20:10;;;;;;;2.65;2.20;;;18.60;99.90;;;;;;5035910;28;20176;-58
2023/07/01 09:22:38;;;;;;;2.38;2.17;;;18.60;99.90;;;;;;5035724;28;20168;-58
2023/07/01 09:25:04;;;;;;;3.90;2.42;;;18.60;99.90;;;;;;5035702;28;20191;-58
2023/07/01 09:27:46;;;;;;;3.90;2.70;;;18.60;99.90;;;;;;5035800;28;20208;-59
2023/07/01 09:30:21;;;;;;;2.95;2.70;;;18.70;99.90;;;;;;5035754;28;20663;-59
2023/07/01 09:32:47;;;;;;;3.08;2.78;;;18.80;99.90;;;;;;5035940;28;20182;-58
2023/07/01 09:35:13;;;;;;;3.25;2.97;;;18.80;99.90;;;;;;5036319;28;20180;-58
2023/07/01 09:37:39;;;;;;;3.40;2.95;;;18.90;99.90;;;;;;5036209;28;20180;-58
2023/07/01 09:40:22;;;;;;;3.45;3.15;;;18.90;99.90;;;;;;5036102;28;20530;-59
2023/07/01 09:42:51;;;;;;;4.88;2.70;;;18.80;99.90;;;;;;5035909;28;20179;-58
2023/07/01 09:45:17;;;;;;;3.78;2.95;;;18.80;99.90;;;;;;5035568;28;20172;-58
2023/07/01 09:47:43;;;;;;;3.35;3.03;;;18.90;99.90;;;;;;5036463;28;20676;-58
2023/07/01 09:50:24;;;;;;;4.38;3.40;;;18.90;99.90;;;;;;5035970;28;20180;-58
2023/07/01 09:52:50;;;;;;;3.60;3.30;;;18.90;99.90;;;;;;5036864;28;20237;-58
2023/07/01 09:55:16;;;;;;;4.00;3.60;;;18.90;99.90;;;;;;5051602;28;20199;-58
2023/07/01 09:57:42;;;;;;;4.38;3.78;;;18.90;99.90;;;;;;5038125;28;20208;-59
2023/07/01 10:00:17;;;;;;;3.75;3.45;;;18.90;99.90;;;;;;5035360;28;20645;-58
2023/07/01 10:02:47;;;;;;;4.70;4.00;;;18.90;99.90;;;;;;5035455;28;20255;-58
2023/07/01 10:05:13;;;;;;;4.13;3.83;;;19.00;99.90;;;;;;5035320;28;20241;-58
2023/07/01 10:07:44;;;;;;;4.40;3.97;;;19.10;99.90;;;;;;5035223;28;20212;-59
2023/07/01 10:10:16;;;;;;;4.80;4.32;;;19.30;99.90;;;;;;5035365;28;20176;-58
2023/07/01 10:12:43;;;;;;;5.68;4.50;;;19.20;99.90;;;;;;5034926;28;20641;-58
2023/07/01 10:15:11;;;;;;;5.03;4.50;;;19.20;99.90;;;;;;5035373;28;20526;-58
2023/07/01 10:17:51;;;;;;;5.95;4.50;;;19.20;99.90;;;;;;5035088;28;20570;-58
2023/07/01 10:20:26;;;;;;;6.22;4.68;;;19.40;99.90;;;;;;5035150;28;20579;-58
2023/07/01 10:22:54;;;;;;;6.18;5.32;;;19.30;99.90;;;;;;5035813;28;20168;-58
2023/07/01 10:25:39;;;;;;;6.20;5.22;;;19.40;99.90;;;;;;5054827;28;20176;-58
2023/07/01 10:28:05;;;;;;;7.78;5.72;;;19.50;99.90;;;;;;5054912;28;20260;-58
2023/07/01 10:30:43;;;;;;;6.70;5.43;;;19.50;99.90;;;;;;5054689;28;20563;-58
2023/07/01 10:33:27;;;;;;;6.40;5.80;;;19.60;99.90;;;;;;5054778;28;20178;-58
2023/07/01 10:36:03;;;;;;;6.15;5.65;;;19.60;99.90;;;;;;5054825;28;20171;-58
2023/07/01 10:38:32;;;;;;;9.10;6.78;;;19.60;99.90;;;;;;5054403;28;20171;-58
2023/07/01 10:40:58;;;;;;;7.25;6.15;;;19.80;99.90;;;;;;5053858;28;20255;-58
2023/07/01 10:43:34;;;;;;;8.60;6.75;;;19.90;99.90;;;;;;5054310;28;20214;-58
2023/07/01 10:46:08;;;;;;;7.50;6.30;;;20.10;99.90;;;;;;5051459;28;20171;-58
2023/07/01 10:49:03;;;;;;;7.00;6.28;;;20.10;99.90;;;;;;5036451;28;20240;-58
2023/07/01 10:51:33;;;;;;;7.82;5.88;;;20.20;99.90;;;;;;5034217;28;20176;-58
2023/07/01 10:54:03;;;;;;;7.15;5.70;;;20.30;99.90;;;;;;5033597;28;20706;-58
2023/07/01 10:56:38;;;;;;;6.60;5.97;;;20.30;99.90;;;;;;5034400;28;20171;-58
2023/07/01 10:59:25;;;;;;;6.85;6.15;;;20.30;99.90;;;;;;5034417;28;20182;-58
2023/07/01 11:01:56;;;;;;;7.18;6.47;;;20.10;99.90;;;;;;5034496;28;20709;-58
2023/07/01 11:04:22;;;;;;;7.68;6.00;;;20.00;99.90;;;;;;5033667;28;20179;-58
2023/07/01 11:06:55;;;;;;;6.70;5.43;;;20.00;99.90;;;;;;5034193;28;20203;-58
2023/07/01 11:09:31;;;;;;;5.55;5.05;;;20.00;99.90;;;;;;5034361;28;20246;-58
2023/07/01 11:11:57;;;;;;;7.38;5.65;;;19.80;99.90;;;;;;5033998;28;20180;-58
2023/07/01 11:14:43;;;;;;;7.72;6.00;;;19.90;99.90;;;;;;5034228;28;20199;-58
2023/07/01 11:17:11;;;;;;;7.50;6.30;;;20.30;99.90;;;;;;5033374;28;20293;-58
2023/07/01 11:19:37;;;;;;;7.65;6.93;;;20.50;99.90;;;;;;5034413;28;20196;-59
2023/07/01 11:22:04;;;;;;;7.65;6.82;;;20.70;99.90;;;;;;5034179;28;20199;-58
2023/07/01 11:24:30;;;;;;;7.63;6.80;;;20.80;99.90;;;;;;5033839;28;20172;-59
2023/07/01 11:27:04;;;;;;;7.72;6.90;;;20.90;99.90;;;;;;5033958;28;20270;-58
2023/07/01 11:29:30;;;;;;;8.02;6.95;;;21.00;99.90;;;;;;5033817;28;20211;-58
2023/07/01 11:31:59;;;;;;;8.02;7.28;;;21.30;99.90;;;;;;5033841;28;20187;-58
2023/07/01 11:34:26;;;;;;;7.88;6.70;;;21.50;99.90;;;;;;5041345;28;20194;-58
2023/07/01 11:36:51;;;;;;;8.05;6.95;;;21.60;99.90;;;;;;5053725;28;20183;-58
2023/07/01 11:39:18;;;;;;;8.20;6.80;;;21.60;99.90;;;;;;5053654;28;20228;-58
2023/07/01 11:41:50;;;;;;;6.68;5.97;;;21.60;99.90;;;;;;5053606;28;20621;-58
2023/07/01 11:44:18;;;;;;;7.15;5.75;;;21.50;99.90;;;;;;5053482;28;20175;-59
2023/07/01 11:46:47;;;;;;;8.57;5.47;;;21.70;99.90;;;;;;5053719;28;20671;-58
2023/07/01 11:49:22;;;;;;;7.07;4.75;;;21.80;99.90;;;;;;5053320;28;20341;-58
2023/07/01 11:51:52;;;;;;;6.70;4.25;;;21.70;99.90;;;;;;5053331;28;20185;-58
2023/07/01 11:54:20;;;;;;;3.45;2.47;;;21.40;99.90;;;;;;5053337;28;20510;-59
2023/07/01 11:56:47;;;;;;;5.60;2.45;;;20.90;99.90;;;;;;5053115;28;20175;-59
2023/07/01 11:59:33;;;;;;;3.45;2.30;;;20.60;99.90;;;;;;5051167;28;20264;-58
2023/07/01 12:02:00;;;;;;;3.15;2.63;;;20.10;99.90;;;;;;5052334;28;20639;-58
2023/07/01 12:04:27;;;;;;;4.70;3.05;;;19.90;99.90;;;;;;5046926;28;20176;-59
2023/07/01 12:07:13;;;;;;;5.75;3.88;;;19.80;99.90;;;;;;5027165;28;20175;-58
2023/07/01 12:09:40;;;;;;;6.65;3.67;;;19.60;99.90;;;;;;5053037;28;20552;-58
2023/07/01 12:12:07;;;;;;;3.80;3.53;;;19.40;99.90;;;;;;5052912;28;20183;-58
2023/07/01 12:14:33;;;;;;;4.88;3.90;;;19.40;99.90;;;;;;5053427;28;20531;-58
2023/07/01 12:17:02;;;;;;;4.50;3.50;;;19.30;99.90;;;;;;5052439;28;20189;-58
2023/07/01 12:19:30;;;;;;;3.80;3.33;;;19.30;99.90;;;;;;5053260;28;20182;-58
2023/07/01 12:21:57;;;;;;;5.13;3.20;;;19.20;99.90;;;;;;5052963;28;20175;-58
2023/07/01 12:24:24;;;;;;;4.15;3.25;;;19.20;99.90;;;;;;5035237;28;20183;-58
2023/07/01 12:26:56;;;;;;;5.80;3.47;;;19.10;99.90;;;;;;5053256;28;20180;-58
2023/07/01 12:29:23;;;;;;;7.32;3.70;;;19.20;99.90;;;;;;5052894;28;20691;-59
2023/07/01 12:31:49;;;;;;;5.20;4.07;;;19.20;99.90;;;;;;5053008;28;20217;-59
2023/07/01 12:34:15;;;;;;;4.53;4.03;;;19.30;99.90;;;;;;5052906;28;20179;-58
2023/07/01 12:36:45;;;;;;;5.05;4.55;;;19.30;99.90;;;;;;5052775;28;20231;-58
2023/07/01 12:39:11;;;;;;;4.88;4.47;;;19.30;99.90;;;;;;5053042;28;20182;-58
2023/07/01 12:41:37;;;;;;;5.20;4.70;;;19.40;99.90;;;;;;5052861;28;20656;-58
2023/07/01 12:44:04;;;;;;;6.35;5.00;;;19.50;99.90;;;;;;5052938;28;20179;-58
2023/07/01 12:46:31;;;;;;;7.10;5.55;;;19.70;99.90;;;;;;5053036;28;20171;-59
2023/07/01 12:48:56;;;;;;;7.00;4.90;;;19.90;99.90;;;;;;5052664;28;20217;-59
2023/07/01 12:51:22;;;;;;;7.00;5.18;;;20.00;99.90;;;;;;5052892;28;20640;-59